sensor_id;sensor_type;location;lat;lon;timestamp;P1;durP1;ratioP1;P2;durP2;ratioP2
69912;SDS011;57198;52.082;5.108;2022-09-09T00:00:29;4.13;;;1.37;;
69912;SDS011;57198;52.082;5.108;2022-09-09T00:03:10;1.85;;;1.58;;
69912;SDS011;57198;52.082;5.108;2022-09-09T00:05:44;3.10;;;1.58;;
69912;SDS011;57198;52.082;5.108;2022-09-09T00:08:15;1.98;;;1.30;;
69912;SDS011;57198;52.082;5.108;2022-09-09T00:10:45;2.28;;;1.60;;
69912;SDS011;57198;52.082;5.108;2022-09-09T00:16:02;2.58;;;1.60;;
69912;SDS011;57198;52.082;5.108;2022-09-09T00:23:30;3.53;;;1.40;;
69912;SDS011;57198;52.082;5.108;2022-09-09T00:26:04;1.90;;;1.43;;
69912;SDS011;57198;52.082;5.108;2022-09-09T00:28:33;2.03;;;1.75;;
69912;SDS011;57198;52.082;5.108;2022-09-09T00:31:08;3.67;;;1.75;;
69912;SDS011;57198;52.082;5.108;2022-09-09T00:33:38;4.15;;;1.75;;
69912;SDS011;57198;52.082;5.108;2022-09-09T00:36:07;3.38;;;1.98;;
69912;SDS011;57198;52.082;5.108;2022-09-09T00:38:41;2.97;;;1.50;;
69912;SDS011;57198;52.082;5.108;2022-09-09T00:41:22;3.05;;;1.60;;
69912;SDS011;57198;52.082;5.108;2022-09-09T00:43:55;3.22;;;2.10;;
69912;SDS011;57198;52.082;5.108;2022-09-09T00:51:35;6.13;;;1.50;;
69912;SDS011;57198;52.082;5.108;2022-09-09T00:56:52;2.33;;;1.63;;
69912;SDS011;57198;52.082;5.108;2022-09-09T01:01:54;2.45;;;1.80;;
69912;SDS011;57198;52.082;5.108;2022-09-09T01:04:28;6.03;;;2.10;;
69912;SDS011;57198;52.082;5.108;2022-09-09T01:07:01;4.95;;;2.10;;
69912;SDS011;57198;52.082;5.108;2022-09-09T01:09:32;3.47;;;1.80;;
69912;SDS011;57198;52.082;5.108;2022-09-09T01:17:20;3.00;;;2.23;;
69912;SDS011;57198;52.082;5.108;2022-09-09T01:27:56;3.60;;;2.08;;
69912;SDS011;57198;52.082;5.108;2022-09-09T01:30:25;7.50;;;2.20;;
69912;SDS011;57198;52.082;5.108;2022-09-09T01:32:56;3.13;;;1.85;;
69912;SDS011;57198;52.082;5.108;2022-09-09T01:38:00;3.25;;;2.42;;
69912;SDS011;57198;52.082;5.108;2022-09-09T01:40:28;4.88;;;2.50;;
69912;SDS011;57198;52.082;5.108;2022-09-09T01:42:56;4.13;;;2.50;;
69912;SDS011;57198;52.082;5.108;2022-09-09T01:45:24;3.95;;;3.03;;
69912;SDS011;57198;52.082;5.108;2022-09-09T01:47:54;3.78;;;3.00;;
69912;SDS011;57198;52.082;5.108;2022-09-09T01:50:41;4.28;;;2.67;;
69912;SDS011;57198;52.082;5.108;2022-09-09T01:53:08;3.35;;;2.60;;
69912;SDS011;57198;52.082;5.108;2022-09-09T01:55:40;4.53;;;3.00;;
69912;SDS011;57198;52.082;5.108;2022-09-09T02:00:48;5.60;;;3.47;;
69912;SDS011;57198;52.082;5.108;2022-09-09T02:08:29;5.57;;;3.47;;
69912;SDS011;57198;52.082;5.108;2022-09-09T02:11:14;4.55;;;3.67;;
69912;SDS011;57198;52.082;5.108;2022-09-09T02:14:08;6.20;;;3.88;;
69912;SDS011;57198;52.082;5.108;2022-09-09T02:16:41;5.70;;;3.75;;
69912;SDS011;57198;52.082;5.108;2022-09-09T02:21:54;6.27;;;3.17;;
69912;SDS011;57198;52.082;5.108;2022-09-09T02:24:23;7.38;;;4.07;;
69912;SDS011;57198;52.082;5.108;2022-09-09T02:27:03;5.18;;;3.95;;
69912;SDS011;57198;52.082;5.108;2022-09-09T02:29:34;5.22;;;3.70;;
69912;SDS011;57198;52.082;5.108;2022-09-09T02:32:04;7.20;;;3.97;;
69912;SDS011;57198;52.082;5.108;2022-09-09T02:34:38;6.17;;;4.17;;
69912;SDS011;57198;52.082;5.108;2022-09-09T02:37:06;6.32;;;3.35;;
69912;SDS011;57198;52.082;5.108;2022-09-09T02:39:36;7.95;;;3.72;;
69912;SDS011;57198;52.082;5.108;2022-09-09T02:42:06;6.20;;;3.58;;
69912;SDS011;57198;52.082;5.108;2022-09-09T02:44:34;4.57;;;3.83;;
69912;SDS011;57198;52.082;5.108;2022-09-09T02:47:08;6.80;;;3.90;;
69912;SDS011;57198;52.082;5.108;2022-09-09T02:52:18;6.60;;;3.85;;
69912;SDS011;57198;52.082;5.108;2022-09-09T02:54:47;6.15;;;3.60;;
69912;SDS011;57198;52.082;5.108;2022-09-09T02:57:28;5.90;;;3.75;;
69912;SDS011;57198;52.082;5.108;2022-09-09T02:59:58;6.30;;;3.77;;
69912;SDS011;57198;52.082;5.108;2022-09-09T03:02:28;6.35;;;3.70;;
69912;SDS011;57198;52.082;5.108;2022-09-09T03:05:01;8.30;;;3.78;;
69912;SDS011;57198;52.082;5.108;2022-09-09T03:07:28;6.57;;;3.53;;
69912;SDS011;57198;52.082;5.108;2022-09-09T03:09:55;4.22;;;3.50;;
69912;SDS011;57198;52.082;5.108;2022-09-09T03:12:25;7.33;;;3.03;;
69912;SDS011;57198;52.082;5.108;2022-09-09T03:14:52;7.00;;;4.20;;
69912;SDS011;57198;52.082;5.108;2022-09-09T03:17:20;4.75;;;3.88;;
69912;SDS011;57198;52.082;5.108;2022-09-09T03:19:51;4.13;;;3.15;;
69912;SDS011;57198;52.082;5.108;2022-09-09T03:22:21;5.30;;;3.67;;
69912;SDS011;57198;52.082;5.108;2022-09-09T03:24:48;5.30;;;3.53;;
69912;SDS011;57198;52.082;5.108;2022-09-09T03:27:16;5.45;;;3.90;;
69912;SDS011;57198;52.082;5.108;2022-09-09T03:29:44;5.47;;;4.10;;
69912;SDS011;57198;52.082;5.108;2022-09-09T03:32:15;4.72;;;3.90;;
69912;SDS011;57198;52.082;5.108;2022-09-09T03:34:44;6.13;;;4.75;;
69912;SDS011;57198;52.082;5.108;2022-09-09T03:37:13;4.87;;;3.80;;
69912;SDS011;57198;52.082;5.108;2022-09-09T03:39:40;6.93;;;3.97;;
69912;SDS011;57198;52.082;5.108;2022-09-09T03:42:09;4.75;;;3.83;;
69912;SDS011;57198;52.082;5.108;2022-09-09T03:44:37;4.45;;;3.50;;
69912;SDS011;57198;52.082;5.108;2022-09-09T03:47:04;6.00;;;3.70;;
69912;SDS011;57198;52.082;5.108;2022-09-09T03:49:33;5.40;;;3.90;;
69912;SDS011;57198;52.082;5.108;2022-09-09T03:52:01;5.78;;;3.63;;
69912;SDS011;57198;52.082;5.108;2022-09-09T03:54:28;3.83;;;3.53;;
69912;SDS011;57198;52.082;5.108;2022-09-09T03:56:55;4.40;;;3.78;;
69912;SDS011;57198;52.082;5.108;2022-09-09T03:59:23;4.72;;;3.58;;
69912;SDS011;57198;52.082;5.108;2022-09-09T04:01:50;6.73;;;3.77;;
69912;SDS011;57198;52.082;5.108;2022-09-09T04:04:18;6.88;;;3.45;;
69912;SDS011;57198;52.082;5.108;2022-09-09T04:06:46;5.60;;;3.75;;
69912;SDS011;57198;52.082;5.108;2022-09-09T04:09:14;6.78;;;3.40;;
69912;SDS011;57198;52.082;5.108;2022-09-09T04:11:42;5.88;;;3.65;;
69912;SDS011;57198;52.082;5.108;2022-09-09T04:14:09;6.83;;;3.30;;
69912;SDS011;57198;52.082;5.108;2022-09-09T04:16:36;7.15;;;3.38;;
69912;SDS011;57198;52.082;5.108;2022-09-09T04:19:04;4.18;;;3.78;;
69912;SDS011;57198;52.082;5.108;2022-09-09T04:21:34;4.45;;;3.20;;
69912;SDS011;57198;52.082;5.108;2022-09-09T04:24:02;5.75;;;3.45;;
69912;SDS011;57198;52.082;5.108;2022-09-09T04:26:29;5.23;;;3.43;;
69912;SDS011;57198;52.082;5.108;2022-09-09T04:28:58;4.80;;;3.50;;
69912;SDS011;57198;52.082;5.108;2022-09-09T04:31:27;6.47;;;3.00;;
69912;SDS011;57198;52.082;5.108;2022-09-09T04:33:55;8.55;;;3.40;;
69912;SDS011;57198;52.082;5.108;2022-09-09T04:36:24;4.93;;;3.00;;
69912;SDS011;57198;52.082;5.108;2022-09-09T04:38:56;3.10;;;2.63;;
69912;SDS011;57198;52.082;5.108;2022-09-09T04:41:24;5.00;;;2.55;;
69912;SDS011;57198;52.082;5.108;2022-09-09T04:43:52;5.20;;;3.28;;
69912;SDS011;57198;52.082;5.108;2022-09-09T04:46:21;5.47;;;3.05;;
69912;SDS011;57198;52.082;5.108;2022-09-09T04:48:49;6.18;;;2.97;;
69912;SDS011;57198;52.082;5.108;2022-09-09T04:51:18;4.40;;;3.10;;
69912;SDS011;57198;52.082;5.108;2022-09-09T04:53:47;4.13;;;3.05;;
69912;SDS011;57198;52.082;5.108;2022-09-09T04:56:17;5.35;;;3.17;;
69912;SDS011;57198;52.082;5.108;2022-09-09T04:58:51;6.60;;;2.58;;
69912;SDS011;57198;52.082;5.108;2022-09-09T05:01:22;4.55;;;2.85;;
69912;SDS011;57198;52.082;5.108;2022-09-09T05:03:52;3.17;;;2.30;;
69912;SDS011;57198;52.082;5.108;2022-09-09T05:06:22;3.78;;;2.78;;
69912;SDS011;57198;52.082;5.108;2022-09-09T05:08:54;5.82;;;2.85;;
69912;SDS011;57198;52.082;5.108;2022-09-09T05:11:25;7.65;;;2.95;;
69912;SDS011;57198;52.082;5.108;2022-09-09T05:13:58;8.75;;;3.95;;
69912;SDS011;57198;52.082;5.108;2022-09-09T05:16:26;8.80;;;2.87;;
69912;SDS011;57198;52.082;5.108;2022-09-09T05:18:54;5.50;;;2.42;;
69912;SDS011;57198;52.082;5.108;2022-09-09T05:21:23;8.85;;;2.90;;
69912;SDS011;57198;52.082;5.108;2022-09-09T05:23:52;7.82;;;2.80;;
69912;SDS011;57198;52.082;5.108;2022-09-09T05:26:20;5.97;;;2.95;;
69912;SDS011;57198;52.082;5.108;2022-09-09T05:28:50;7.77;;;2.50;;
69912;SDS011;57198;52.082;5.108;2022-09-09T05:31:18;6.07;;;2.53;;
69912;SDS011;57198;52.082;5.108;2022-09-09T05:33:49;5.80;;;2.78;;
69912;SDS011;57198;52.082;5.108;2022-09-09T05:36:17;5.85;;;2.67;;
69912;SDS011;57198;52.082;5.108;2022-09-09T05:38:46;5.32;;;2.55;;
69912;SDS011;57198;52.082;5.108;2022-09-09T05:41:14;5.10;;;2.57;;
69912;SDS011;57198;52.082;5.108;2022-09-09T05:43:45;9.32;;;2.53;;
69912;SDS011;57198;52.082;5.108;2022-09-09T05:46:24;7.22;;;3.00;;
69912;SDS011;57198;52.082;5.108;2022-09-09T05:48:53;7.75;;;2.40;;
69912;SDS011;57198;52.082;5.108;2022-09-09T05:51:27;6.45;;;3.08;;
69912;SDS011;57198;52.082;5.108;2022-09-09T05:53:58;6.40;;;2.50;;
69912;SDS011;57198;52.082;5.108;2022-09-09T05:56:29;11.23;;;2.80;;
69912;SDS011;57198;52.082;5.108;2022-09-09T05:58:57;8.75;;;2.67;;
69912;SDS011;57198;52.082;5.108;2022-09-09T06:01:27;3.85;;;2.50;;
69912;SDS011;57198;52.082;5.108;2022-09-09T06:03:56;10.85;;;3.17;;
69912;SDS011;57198;52.082;5.108;2022-09-09T06:06:24;5.93;;;2.63;;
69912;SDS011;57198;52.082;5.108;2022-09-09T06:08:55;7.53;;;2.53;;
69912;SDS011;57198;52.082;5.108;2022-09-09T06:11:29;7.50;;;2.90;;
69912;SDS011;57198;52.082;5.108;2022-09-09T06:14:00;4.63;;;2.50;;
69912;SDS011;57198;52.082;5.108;2022-09-09T06:16:29;6.85;;;2.90;;
69912;SDS011;57198;52.082;5.108;2022-09-09T06:18:59;11.07;;;2.90;;
69912;SDS011;57198;52.082;5.108;2022-09-09T06:21:32;8.05;;;2.80;;
69912;SDS011;57198;52.082;5.108;2022-09-09T06:24:01;9.27;;;3.53;;
69912;SDS011;57198;52.082;5.108;2022-09-09T06:26:30;6.60;;;2.42;;
69912;SDS011;57198;52.082;5.108;2022-09-09T06:28:59;9.82;;;2.65;;
69912;SDS011;57198;52.082;5.108;2022-09-09T06:31:29;5.17;;;2.30;;
69912;SDS011;57198;52.082;5.108;2022-09-09T06:34:01;6.50;;;2.65;;
69912;SDS011;57198;52.082;5.108;2022-09-09T06:36:29;8.70;;;2.53;;
69912;SDS011;57198;52.082;5.108;2022-09-09T06:38:57;8.15;;;2.38;;
69912;SDS011;57198;52.082;5.108;2022-09-09T06:41:26;7.68;;;2.33;;
69912;SDS011;57198;52.082;5.108;2022-09-09T06:43:54;9.77;;;2.73;;
69912;SDS011;57198;52.082;5.108;2022-09-09T06:46:30;7.32;;;2.15;;
69912;SDS011;57198;52.082;5.108;2022-09-09T06:48:59;10.20;;;2.72;;
69912;SDS011;57198;52.082;5.108;2022-09-09T06:51:35;10.95;;;2.58;;
69912;SDS011;57198;52.082;5.108;2022-09-09T06:54:03;8.23;;;2.47;;
69912;SDS011;57198;52.082;5.108;2022-09-09T06:56:32;6.27;;;2.10;;
69912;SDS011;57198;52.082;5.108;2022-09-09T06:59:04;7.45;;;2.08;;
69912;SDS011;57198;52.082;5.108;2022-09-09T07:01:32;8.05;;;2.10;;
69912;SDS011;57198;52.082;5.108;2022-09-09T07:04:04;8.50;;;2.30;;
69912;SDS011;57198;52.082;5.108;2022-09-09T07:06:36;5.68;;;2.28;;
69912;SDS011;57198;52.082;5.108;2022-09-09T07:09:06;5.40;;;1.90;;
69912;SDS011;57198;52.082;5.108;2022-09-09T07:11:44;5.30;;;2.15;;
69912;SDS011;57198;52.082;5.108;2022-09-09T07:14:12;9.38;;;2.50;;
69912;SDS011;57198;52.082;5.108;2022-09-09T07:16:44;5.80;;;2.17;;
69912;SDS011;57198;52.082;5.108;2022-09-09T07:19:14;16.27;;;2.58;;
69912;SDS011;57198;52.082;5.108;2022-09-09T07:21:43;9.57;;;2.40;;
69912;SDS011;57198;52.082;5.108;2022-09-09T07:24:14;6.25;;;2.03;;
69912;SDS011;57198;52.082;5.108;2022-09-09T07:26:42;10.35;;;2.20;;
69912;SDS011;57198;52.082;5.108;2022-09-09T07:29:11;5.85;;;2.00;;
69912;SDS011;57198;52.082;5.108;2022-09-09T07:31:46;7.07;;;2.15;;
69912;SDS011;57198;52.082;5.108;2022-09-09T07:34:20;10.67;;;2.67;;
69912;SDS011;57198;52.082;5.108;2022-09-09T07:36:47;11.52;;;2.33;;
69912;SDS011;57198;52.082;5.108;2022-09-09T07:39:16;6.70;;;2.15;;
69912;SDS011;57198;52.082;5.108;2022-09-09T07:41:48;7.03;;;2.33;;
69912;SDS011;57198;52.082;5.108;2022-09-09T07:44:21;6.80;;;2.17;;
69912;SDS011;57198;52.082;5.108;2022-09-09T07:46:54;6.87;;;2.07;;
69912;SDS011;57198;52.082;5.108;2022-09-09T07:49:27;7.05;;;1.92;;
69912;SDS011;57198;52.082;5.108;2022-09-09T07:51:59;7.25;;;2.03;;
69912;SDS011;57198;52.082;5.108;2022-09-09T07:54:28;7.10;;;2.45;;
69912;SDS011;57198;52.082;5.108;2022-09-09T07:56:56;9.38;;;2.47;;
69912;SDS011;57198;52.082;5.108;2022-09-09T07:59:29;8.77;;;2.30;;
69912;SDS011;57198;52.082;5.108;2022-09-09T08:01:57;8.80;;;2.10;;
69912;SDS011;57198;52.082;5.108;2022-09-09T08:04:28;7.28;;;2.05;;
69912;SDS011;57198;52.082;5.108;2022-09-09T08:06:56;6.38;;;2.30;;
69912;SDS011;57198;52.082;5.108;2022-09-09T08:09:26;6.45;;;2.53;;
69912;SDS011;57198;52.082;5.108;2022-09-09T08:12:03;6.33;;;1.80;;
69912;SDS011;57198;52.082;5.108;2022-09-09T08:14:33;9.20;;;2.03;;
69912;SDS011;57198;52.082;5.108;2022-09-09T08:17:00;6.32;;;2.33;;
69912;SDS011;57198;52.082;5.108;2022-09-09T08:19:29;4.70;;;1.90;;
69912;SDS011;57198;52.082;5.108;2022-09-09T08:21:58;5.50;;;1.88;;
69912;SDS011;57198;52.082;5.108;2022-09-09T08:24:29;8.73;;;2.03;;
69912;SDS011;57198;52.082;5.108;2022-09-09T08:26:56;6.60;;;1.90;;
69912;SDS011;57198;52.082;5.108;2022-09-09T08:29:24;7.00;;;1.80;;
69912;SDS011;57198;52.082;5.108;2022-09-09T08:31:53;7.25;;;2.47;;
69912;SDS011;57198;52.082;5.108;2022-09-09T08:34:21;5.80;;;2.17;;
69912;SDS011;57198;52.082;5.108;2022-09-09T08:36:50;6.90;;;1.70;;
69912;SDS011;57198;52.082;5.108;2022-09-09T08:39:22;5.20;;;2.00;;
69912;SDS011;57198;52.082;5.108;2022-09-09T08:44:37;8.00;;;2.05;;
69912;SDS011;57198;52.082;5.108;2022-09-09T08:47:17;7.10;;;1.90;;
69912;SDS011;57198;52.082;5.108;2022-09-09T08:55:10;3.40;;;2.08;;
69912;SDS011;57198;52.082;5.108;2022-09-09T08:57:40;7.22;;;2.00;;
69912;SDS011;57198;52.082;5.108;2022-09-09T09:00:09;11.27;;;2.45;;
69912;SDS011;57198;52.082;5.108;2022-09-09T09:05:27;6.63;;;2.22;;
69912;SDS011;57198;52.082;5.108;2022-09-09T09:13:15;6.93;;;1.85;;
69912;SDS011;57198;52.082;5.108;2022-09-09T09:15:46;7.10;;;2.17;;
69912;SDS011;57198;52.082;5.108;2022-09-09T09:18:14;9.60;;;1.90;;
69912;SDS011;57198;52.082;5.108;2022-09-09T09:23:44;9.60;;;2.55;;
69912;SDS011;57198;52.082;5.108;2022-09-09T09:26:12;11.60;;;2.47;;
69912;SDS011;57198;52.082;5.108;2022-09-09T09:28:41;8.73;;;2.03;;
69912;SDS011;57198;52.082;5.108;2022-09-09T09:31:13;5.88;;;2.22;;
69912;SDS011;57198;52.082;5.108;2022-09-09T09:33:52;5.93;;;1.73;;
69912;SDS011;57198;52.082;5.108;2022-09-09T09:36:44;4.82;;;1.80;;
69912;SDS011;57198;52.082;5.108;2022-09-09T09:39:25;6.07;;;2.20;;
69912;SDS011;57198;52.082;5.108;2022-09-09T09:42:16;7.10;;;2.83;;
69912;SDS011;57198;52.082;5.108;2022-09-09T09:44:48;6.88;;;2.45;;
69912;SDS011;57198;52.082;5.108;2022-09-09T09:47:20;6.63;;;2.15;;
69912;SDS011;57198;52.082;5.108;2022-09-09T09:49:55;11.85;;;2.15;;
69912;SDS011;57198;52.082;5.108;2022-09-09T09:52:28;8.38;;;2.65;;
69912;SDS011;57198;52.082;5.108;2022-09-09T09:54:58;9.33;;;2.30;;
69912;SDS011;57198;52.082;5.108;2022-09-09T09:57:32;8.38;;;2.42;;
69912;SDS011;57198;52.082;5.108;2022-09-09T10:02:40;4.65;;;2.17;;
69912;SDS011;57198;52.082;5.108;2022-09-09T10:05:20;8.95;;;2.53;;
69912;SDS011;57198;52.082;5.108;2022-09-09T10:08:14;7.57;;;2.30;;
69912;SDS011;57198;52.082;5.108;2022-09-09T10:23:50;7.60;;;2.10;;
69912;SDS011;57198;52.082;5.108;2022-09-09T10:28:55;7.95;;;2.50;;
69912;SDS011;57198;52.082;5.108;2022-09-09T10:31:41;5.80;;;2.47;;
69912;SDS011;57198;52.082;5.108;2022-09-09T10:37:01;7.15;;;1.80;;
69912;SDS011;57198;52.082;5.108;2022-09-09T10:39:35;4.50;;;1.83;;
69912;SDS011;57198;52.082;5.108;2022-09-09T10:42:09;3.67;;;1.67;;
69912;SDS011;57198;52.082;5.108;2022-09-09T10:47:15;4.57;;;1.40;;
69912;SDS011;57198;52.082;5.108;2022-09-09T10:52:32;3.88;;;1.80;;
69912;SDS011;57198;52.082;5.108;2022-09-09T10:57:45;6.20;;;2.30;;
69912;SDS011;57198;52.082;5.108;2022-09-09T11:00:15;5.07;;;1.80;;
69912;SDS011;57198;52.082;5.108;2022-09-09T11:02:44;5.35;;;1.73;;
69912;SDS011;57198;52.082;5.108;2022-09-09T11:05:19;4.25;;;1.92;;
69912;SDS011;57198;52.082;5.108;2022-09-09T11:10:37;8.57;;;2.20;;
69912;SDS011;57198;52.082;5.108;2022-09-09T11:13:18;3.20;;;1.50;;
69912;SDS011;57198;52.082;5.108;2022-09-09T11:15:56;3.08;;;1.55;;
69912;SDS011;57198;52.082;5.108;2022-09-09T11:18:35;7.45;;;1.98;;
69912;SDS011;57198;52.082;5.108;2022-09-09T11:21:04;4.10;;;1.92;;
69912;SDS011;57198;52.082;5.108;2022-09-09T11:23:43;6.75;;;2.35;;
69912;SDS011;57198;52.082;5.108;2022-09-09T11:26:14;6.00;;;1.93;;
69912;SDS011;57198;52.082;5.108;2022-09-09T11:33:50;4.95;;;1.77;;
69912;SDS011;57198;52.082;5.108;2022-09-09T11:36:31;7.75;;;1.92;;
69912;SDS011;57198;52.082;5.108;2022-09-09T11:41:49;4.20;;;1.85;;
69912;SDS011;57198;52.082;5.108;2022-09-09T11:44:21;5.10;;;1.60;;
69912;SDS011;57198;52.082;5.108;2022-09-09T11:46:52;5.05;;;1.90;;
69912;SDS011;57198;52.082;5.108;2022-09-09T11:49:29;4.10;;;1.67;;
69912;SDS011;57198;52.082;5.108;2022-09-09T11:51:57;2.77;;;1.50;;
69912;SDS011;57198;52.082;5.108;2022-09-09T11:54:27;6.03;;;2.35;;
69912;SDS011;57198;52.082;5.108;2022-09-09T11:56:55;2.88;;;2.05;;
69912;SDS011;57198;52.082;5.108;2022-09-09T11:59:23;3.80;;;2.00;;
69912;SDS011;57198;52.082;5.108;2022-09-09T12:01:59;4.65;;;2.08;;
69912;SDS011;57198;52.082;5.108;2022-09-09T12:04:28;5.70;;;2.50;;
69912;SDS011;57198;52.082;5.108;2022-09-09T12:12:04;6.72;;;2.00;;
69912;SDS011;57198;52.082;5.108;2022-09-09T12:17:17;3.27;;;2.20;;
69912;SDS011;57198;52.082;5.108;2022-09-09T12:19:47;5.40;;;2.15;;
69912;SDS011;57198;52.082;5.108;2022-09-09T12:27:24;4.28;;;2.55;;
69912;SDS011;57198;52.082;5.108;2022-09-09T12:30:02;4.80;;;2.20;;
69912;SDS011;57198;52.082;5.108;2022-09-09T12:32:30;6.88;;;2.50;;
69912;SDS011;57198;52.082;5.108;2022-09-09T12:35:18;5.03;;;2.60;;
69912;SDS011;57198;52.082;5.108;2022-09-09T12:42:42;3.93;;;1.53;;
69912;SDS011;57198;52.082;5.108;2022-09-09T12:45:17;5.30;;;1.88;;
69912;SDS011;57198;52.082;5.108;2022-09-09T12:47:52;4.78;;;1.83;;
69912;SDS011;57198;52.082;5.108;2022-09-09T12:50:21;3.22;;;1.55;;
69912;SDS011;57198;52.082;5.108;2022-09-09T12:52:52;8.25;;;2.10;;
69912;SDS011;57198;52.082;5.108;2022-09-09T12:55:21;3.20;;;1.40;;
69912;SDS011;57198;52.082;5.108;2022-09-09T12:57:51;6.10;;;1.70;;
69912;SDS011;57198;52.082;5.108;2022-09-09T13:00:21;6.78;;;1.90;;
69912;SDS011;57198;52.082;5.108;2022-09-09T13:02:53;5.05;;;1.40;;
69912;SDS011;57198;52.082;5.108;2022-09-09T13:05:22;5.00;;;1.70;;
69912;SDS011;57198;52.082;5.108;2022-09-09T13:07:49;3.70;;;1.70;;
69912;SDS011;57198;52.082;5.108;2022-09-09T13:10:26;6.03;;;1.90;;
69912;SDS011;57198;52.082;5.108;2022-09-09T13:13:15;6.25;;;1.92;;
69912;SDS011;57198;52.082;5.108;2022-09-09T13:15:48;3.95;;;1.75;;
69912;SDS011;57198;52.082;5.108;2022-09-09T13:18:16;4.05;;;1.88;;
69912;SDS011;57198;52.082;5.108;2022-09-09T13:20:48;3.20;;;2.10;;
69912;SDS011;57198;52.082;5.108;2022-09-09T13:23:15;2.53;;;1.80;;
69912;SDS011;57198;52.082;5.108;2022-09-09T13:25:59;5.53;;;2.13;;
69912;SDS011;57198;52.082;5.108;2022-09-09T13:28:27;4.20;;;1.92;;
69912;SDS011;57198;52.082;5.108;2022-09-09T13:31:00;3.08;;;2.13;;
69912;SDS011;57198;52.082;5.108;2022-09-09T13:33:30;6.47;;;1.83;;
69912;SDS011;57198;52.082;5.108;2022-09-09T13:35:59;4.85;;;2.00;;
69912;SDS011;57198;52.082;5.108;2022-09-09T13:38:29;4.20;;;2.17;;
69912;SDS011;57198;52.082;5.108;2022-09-09T13:40:59;5.45;;;1.73;;
69912;SDS011;57198;52.082;5.108;2022-09-09T13:43:31;6.95;;;2.20;;
69912;SDS011;57198;52.082;5.108;2022-09-09T13:46:01;5.17;;;2.03;;
69912;SDS011;57198;52.082;5.108;2022-09-09T13:48:29;3.83;;;2.40;;
69912;SDS011;57198;52.082;5.108;2022-09-09T13:50:59;5.70;;;2.28;;
69912;SDS011;57198;52.082;5.108;2022-09-09T13:53:26;5.88;;;2.58;;
69912;SDS011;57198;52.082;5.108;2022-09-09T13:55:55;5.88;;;2.90;;
69912;SDS011;57198;52.082;5.108;2022-09-09T13:58:23;7.17;;;3.00;;
69912;SDS011;57198;52.082;5.108;2022-09-09T14:00:52;7.00;;;2.70;;
69912;SDS011;57198;52.082;5.108;2022-09-09T14:03:20;6.20;;;3.22;;
69912;SDS011;57198;52.082;5.108;2022-09-09T14:05:48;6.82;;;2.75;;
69912;SDS011;57198;52.082;5.108;2022-09-09T14:08:24;9.13;;;3.05;;
69912;SDS011;57198;52.082;5.108;2022-09-09T14:10:52;6.20;;;2.57;;
69912;SDS011;57198;52.082;5.108;2022-09-09T14:13:22;5.90;;;2.95;;
69912;SDS011;57198;52.082;5.108;2022-09-09T14:15:50;8.43;;;3.10;;
69912;SDS011;57198;52.082;5.108;2022-09-09T14:18:18;6.60;;;3.30;;
69912;SDS011;57198;52.082;5.108;2022-09-09T14:20:45;9.30;;;4.07;;
69912;SDS011;57198;52.082;5.108;2022-09-09T14:23:12;8.10;;;2.87;;
69912;SDS011;57198;52.082;5.108;2022-09-09T14:25:43;5.88;;;2.90;;
69912;SDS011;57198;52.082;5.108;2022-09-09T14:28:11;8.07;;;2.90;;
69912;SDS011;57198;52.082;5.108;2022-09-09T14:30:40;3.22;;;2.70;;
69912;SDS011;57198;52.082;5.108;2022-09-09T14:33:08;4.10;;;2.60;;
69912;SDS011;57198;52.082;5.108;2022-09-09T14:35:37;6.20;;;2.60;;
69912;SDS011;57198;52.082;5.108;2022-09-09T14:38:09;4.10;;;2.05;;
69912;SDS011;57198;52.082;5.108;2022-09-09T14:40:44;3.53;;;2.15;;
69912;SDS011;57198;52.082;5.108;2022-09-09T14:43:13;1.75;;;1.50;;
69912;SDS011;57198;52.082;5.108;2022-09-09T14:45:41;3.97;;;1.90;;
69912;SDS011;57198;52.082;5.108;2022-09-09T14:48:09;2.00;;;1.20;;
69912;SDS011;57198;52.082;5.108;2022-09-09T14:50:36;1.15;;;0.93;;
69912;SDS011;57198;52.082;5.108;2022-09-09T14:53:06;3.30;;;1.70;;
69912;SDS011;57198;52.082;5.108;2022-09-09T14:55:35;2.05;;;1.10;;
69912;SDS011;57198;52.082;5.108;2022-09-09T14:58:03;1.88;;;1.60;;
69912;SDS011;57198;52.082;5.108;2022-09-09T15:00:30;2.97;;;1.30;;
69912;SDS011;57198;52.082;5.108;2022-09-09T15:02:58;2.72;;;1.67;;
69912;SDS011;57198;52.082;5.108;2022-09-09T15:05:25;4.32;;;1.73;;
69912;SDS011;57198;52.082;5.108;2022-09-09T15:07:54;4.50;;;1.70;;
69912;SDS011;57198;52.082;5.108;2022-09-09T15:10:21;4.25;;;1.67;;
69912;SDS011;57198;52.082;5.108;2022-09-09T15:12:48;2.80;;;1.73;;
69912;SDS011;57198;52.082;5.108;2022-09-09T15:15:15;4.25;;;1.70;;
69912;SDS011;57198;52.082;5.108;2022-09-09T15:17:43;5.15;;;2.03;;
69912;SDS011;57198;52.082;5.108;2022-09-09T15:20:10;6.47;;;2.15;;
69912;SDS011;57198;52.082;5.108;2022-09-09T15:22:37;5.78;;;1.65;;
69912;SDS011;57198;52.082;5.108;2022-09-09T15:25:06;2.13;;;1.20;;
69912;SDS011;57198;52.082;5.108;2022-09-09T15:27:34;2.05;;;1.40;;
69912;SDS011;57198;52.082;5.108;2022-09-09T15:30:02;3.80;;;1.75;;
69912;SDS011;57198;52.082;5.108;2022-09-09T15:32:29;2.35;;;1.30;;
69912;SDS011;57198;52.082;5.108;2022-09-09T15:34:57;2.70;;;1.67;;
69912;SDS011;57198;52.082;5.108;2022-09-09T15:37:24;2.80;;;1.30;;
69912;SDS011;57198;52.082;5.108;2022-09-09T15:39:51;2.90;;;1.20;;
69912;SDS011;57198;52.082;5.108;2022-09-09T15:42:19;2.90;;;1.63;;
69912;SDS011;57198;52.082;5.108;2022-09-09T15:44:46;2.33;;;1.40;;
69912;SDS011;57198;52.082;5.108;2022-09-09T15:47:13;2.72;;;1.40;;
69912;SDS011;57198;52.082;5.108;2022-09-09T15:49:41;3.63;;;1.37;;
69912;SDS011;57198;52.082;5.108;2022-09-09T15:52:09;3.30;;;1.40;;
69912;SDS011;57198;52.082;5.108;2022-09-09T15:54:37;4.13;;;1.30;;
69912;SDS011;57198;52.082;5.108;2022-09-09T15:57:06;2.88;;;1.05;;
69912;SDS011;57198;52.082;5.108;2022-09-09T15:59:34;3.35;;;1.95;;
69912;SDS011;57198;52.082;5.108;2022-09-09T16:02:02;2.60;;;1.23;;
69912;SDS011;57198;52.082;5.108;2022-09-09T16:04:30;1.38;;;1.23;;
69912;SDS011;57198;52.082;5.108;2022-09-09T16:07:01;2.53;;;1.77;;
69912;SDS011;57198;52.082;5.108;2022-09-09T16:09:29;4.07;;;1.50;;
69912;SDS011;57198;52.082;5.108;2022-09-09T16:11:57;3.15;;;1.45;;
69912;SDS011;57198;52.082;5.108;2022-09-09T16:14:27;6.77;;;1.60;;
69912;SDS011;57198;52.082;5.108;2022-09-09T16:16:54;5.25;;;1.65;;
69912;SDS011;57198;52.082;5.108;2022-09-09T16:19:22;5.75;;;1.77;;
69912;SDS011;57198;52.082;5.108;2022-09-09T16:21:50;4.50;;;1.60;;
69912;SDS011;57198;52.082;5.108;2022-09-09T16:24:18;4.95;;;2.08;;
69912;SDS011;57198;52.082;5.108;2022-09-09T16:26:46;7.63;;;2.50;;
69912;SDS011;57198;52.082;5.108;2022-09-09T16:29:14;3.30;;;2.05;;
69912;SDS011;57198;52.082;5.108;2022-09-09T16:31:42;4.22;;;2.30;;
69912;SDS011;57198;52.082;5.108;2022-09-09T16:34:09;3.67;;;1.90;;
69912;SDS011;57198;52.082;5.108;2022-09-09T16:36:37;7.07;;;2.50;;
69912;SDS011;57198;52.082;5.108;2022-09-09T16:39:09;4.43;;;2.33;;
69912;SDS011;57198;52.082;5.108;2022-09-09T16:41:38;6.72;;;2.42;;
69912;SDS011;57198;52.082;5.108;2022-09-09T16:44:06;5.32;;;2.58;;
69912;SDS011;57198;52.082;5.108;2022-09-09T16:46:35;4.15;;;2.35;;
69912;SDS011;57198;52.082;5.108;2022-09-09T16:49:05;5.30;;;2.60;;
69912;SDS011;57198;52.082;5.108;2022-09-09T16:51:34;7.23;;;3.00;;
69912;SDS011;57198;52.082;5.108;2022-09-09T16:54:03;8.65;;;3.47;;
69912;SDS011;57198;52.082;5.108;2022-09-09T16:56:30;6.40;;;2.90;;
69912;SDS011;57198;52.082;5.108;2022-09-09T16:59:04;5.75;;;2.78;;
69912;SDS011;57198;52.082;5.108;2022-09-09T17:01:33;4.90;;;2.90;;
69912;SDS011;57198;52.082;5.108;2022-09-09T17:04:04;4.10;;;2.63;;
69912;SDS011;57198;52.082;5.108;2022-09-09T17:06:32;7.43;;;2.90;;
69912;SDS011;57198;52.082;5.108;2022-09-09T17:09:01;6.53;;;3.10;;
69912;SDS011;57198;52.082;5.108;2022-09-09T17:11:29;4.78;;;3.20;;